sensor_id;sensor_type;location;lat;lon;timestamp;temperature;humidity
8910;DHT22;4490;49.072;8.804;2023-07-08T00:00:52;21.70;63.50
8910;DHT22;4490;49.072;8.804;2023-07-08T00:03:19;21.60;63.70
8910;DHT22;4490;49.072;8.804;2023-07-08T00:05:45;21.60;64.00
8910;DHT22;4490;49.072;8.804;2023-07-08T00:08:13;21.60;64.30
8910;DHT22;4490;49.072;8.804;2023-07-08T00:10:40;21.50;65.00
8910;DHT22;4490;49.072;8.804;2023-07-08T00:13:05;21.50;64.40
8910;DHT22;4490;49.072;8.804;2023-07-08T00:15:32;21.40;64.60
8910;DHT22;4490;49.072;8.804;2023-07-08T00:17:59;21.40;64.20
8910;DHT22;4490;49.072;8.804;2023-07-08T00:20:44;21.30;64.40
8910;DHT22;4490;49.072;8.804;2023-07-08T00:23:10;21.30;64.80
8910;DHT22;4490;49.072;8.804;2023-07-08T00:25:36;21.20;64.60
8910;DHT22;4490;49.072;8.804;2023-07-08T00:28:04;21.20;64.90
8910;DHT22;4490;49.072;8.804;2023-07-08T00:30:31;21.20;66.20
8910;DHT22;4490;49.072;8.804;2023-07-08T00:32:57;21.10;65.70
8910;DHT22;4490;49.072;8.804;2023-07-08T00:37:58;21.10;65.80
8910;DHT22;4490;49.072;8.804;2023-07-08T00:40:29;21.10;66.00
8910;DHT22;4490;49.072;8.804;2023-07-08T00:42:56;21.10;66.50
8910;DHT22;4490;49.072;8.804;2023-07-08T00:48:17;20.90;66.70
8910;DHT22;4490;49.072;8.804;2023-07-08T00:50:43;20.90;66.80
8910;DHT22;4490;49.072;8.804;2023-07-08T00:53:28;20.80;66.80
8910;DHT22;4490;49.072;8.804;2023-07-08T00:56:15;20.80;67.40
8910;DHT22;4490;49.072;8.804;2023-07-08T00:59:07;20.70;67.20
8910;DHT22;4490;49.072;8.804;2023-07-08T01:01:32;20.60;67.20
8910;DHT22;4490;49.072;8.804;2023-07-08T01:04:13;20.50;67.10
8910;DHT22;4490;49.072;8.804;2023-07-08T01:06:44;20.50;67.40
8910;DHT22;4490;49.072;8.804;2023-07-08T01:09:12;20.50;67.60
8910;DHT22;4490;49.072;8.804;2023-07-08T01:11:40;20.40;67.00
8910;DHT22;4490;49.072;8.804;2023-07-08T01:14:09;20.40;66.40
8910;DHT22;4490;49.072;8.804;2023-07-08T01:16:38;20.40;66.70
8910;DHT22;4490;49.072;8.804;2023-07-08T01:19:07;20.40;66.50
8910;DHT22;4490;49.072;8.804;2023-07-08T01:21:38;20.30;66.40
8910;DHT22;4490;49.072;8.804;2023-07-08T01:24:06;20.30;66.20
8910;DHT22;4490;49.072;8.804;2023-07-08T01:26:34;20.30;65.90
8910;DHT22;4490;49.072;8.804;2023-07-08T01:29:02;20.30;66.00
8910;DHT22;4490;49.072;8.804;2023-07-08T01:31:28;20.40;65.90
8910;DHT22;4490;49.072;8.804;2023-07-08T01:33:54;20.40;66.00
8910;DHT22;4490;49.072;8.804;2023-07-08T01:36:20;20.30;66.20
8910;DHT22;4490;49.072;8.804;2023-07-08T01:38:46;20.30;66.30
8910;DHT22;4490;49.072;8.804;2023-07-08T01:41:14;20.30;66.40
8910;DHT22;4490;49.072;8.804;2023-07-08T01:43:40;20.30;66.90
8910;DHT22;4490;49.072;8.804;2023-07-08T01:46:18;20.20;67.20
8910;DHT22;4490;49.072;8.804;2023-07-08T01:48:50;20.10;67.80
8910;DHT22;4490;49.072;8.804;2023-07-08T01:51:17;20.00;68.00
8910;DHT22;4490;49.072;8.804;2023-07-08T01:53:43;20.00;67.90
8910;DHT22;4490;49.072;8.804;2023-07-08T01:56:11;19.90;67.90
8910;DHT22;4490;49.072;8.804;2023-07-08T01:58:37;19.90;67.90
8910;DHT22;4490;49.072;8.804;2023-07-08T02:01:02;19.90;68.00
8910;DHT22;4490;49.072;8.804;2023-07-08T02:03:28;19.80;67.90
8910;DHT22;4490;49.072;8.804;2023-07-08T02:05:54;19.70;68.00
8910;DHT22;4490;49.072;8.804;2023-07-08T02:08:20;19.70;68.10
8910;DHT22;4490;49.072;8.804;2023-07-08T02:10:50;19.60;67.90
8910;DHT22;4490;49.072;8.804;2023-07-08T02:13:16;19.60;68.10
8910;DHT22;4490;49.072;8.804;2023-07-08T02:15:42;19.60;68.20
8910;DHT22;4490;49.072;8.804;2023-07-08T02:18:07;19.50;68.70
8910;DHT22;4490;49.072;8.804;2023-07-08T02:20:33;19.50;68.80
8910;DHT22;4490;49.072;8.804;2023-07-08T02:22:59;19.50;68.90
8910;DHT22;4490;49.072;8.804;2023-07-08T02:25:24;19.50;68.80
8910;DHT22;4490;49.072;8.804;2023-07-08T02:27:50;19.50;68.70
8910;DHT22;4490;49.072;8.804;2023-07-08T02:30:15;19.50;68.80
8910;DHT22;4490;49.072;8.804;2023-07-08T02:32:41;19.50;69.00
8910;DHT22;4490;49.072;8.804;2023-07-08T02:35:08;19.40;68.40
8910;DHT22;4490;49.072;8.804;2023-07-08T02:37:34;19.40;68.20
8910;DHT22;4490;49.072;8.804;2023-07-08T02:40:00;19.40;67.70
8910;DHT22;4490;49.072;8.804;2023-07-08T02:42:26;19.50;67.40
8910;DHT22;4490;49.072;8.804;2023-07-08T02:44:51;19.60;68.40
8910;DHT22;4490;49.072;8.804;2023-07-08T02:47:17;19.60;69.30
8910;DHT22;4490;49.072;8.804;2023-07-08T02:49:43;19.60;69.60
8910;DHT22;4490;49.072;8.804;2023-07-08T02:52:09;19.60;69.50
8910;DHT22;4490;49.072;8.804;2023-07-08T02:54:35;19.60;69.50
8910;DHT22;4490;49.072;8.804;2023-07-08T02:57:00;19.50;69.60
8910;DHT22;4490;49.072;8.804;2023-07-08T02:59:26;19.50;69.60
8910;DHT22;4490;49.072;8.804;2023-07-08T03:01:53;19.40;69.90
8910;DHT22;4490;49.072;8.804;2023-07-08T03:04:19;19.30;69.30
8910;DHT22;4490;49.072;8.804;2023-07-08T03:06:49;19.30;69.40
8910;DHT22;4490;49.072;8.804;2023-07-08T03:09:15;19.20;69.80
8910;DHT22;4490;49.072;8.804;2023-07-08T03:11:41;19.20;68.90
8910;DHT22;4490;49.072;8.804;2023-07-08T03:14:07;19.20;69.20
8910;DHT22;4490;49.072;8.804;2023-07-08T03:16:33;19.20;69.30
8910;DHT22;4490;49.072;8.804;2023-07-08T03:18:58;19.20;69.40
8910;DHT22;4490;49.072;8.804;2023-07-08T03:21:24;19.10;69.20
8910;DHT22;4490;49.072;8.804;2023-07-08T03:23:51;19.10;68.80
8910;DHT22;4490;49.072;8.804;2023-07-08T03:26:22;19.10;69.60
8910;DHT22;4490;49.072;8.804;2023-07-08T03:28:48;19.10;69.30
8910;DHT22;4490;49.072;8.804;2023-07-08T03:31:15;19.10;69.20
8910;DHT22;4490;49.072;8.804;2023-07-08T03:33:41;19.10;69.80
8910;DHT22;4490;49.072;8.804;2023-07-08T03:36:13;19.10;69.30
8910;DHT22;4490;49.072;8.804;2023-07-08T03:38:55;19.10;70.10
8910;DHT22;4490;49.072;8.804;2023-07-08T03:41:21;19.20;70.70
8910;DHT22;4490;49.072;8.804;2023-07-08T03:43:47;19.20;70.80
8910;DHT22;4490;49.072;8.804;2023-07-08T03:46:15;19.20;71.40
8910;DHT22;4490;49.072;8.804;2023-07-08T03:48:41;19.10;71.10
8910;DHT22;4490;49.072;8.804;2023-07-08T03:51:16;19.10;70.50
8910;DHT22;4490;49.072;8.804;2023-07-08T03:53:43;19.10;70.70
8910;DHT22;4490;49.072;8.804;2023-07-08T03:56:12;19.10;70.20
8910;DHT22;4490;49.072;8.804;2023-07-08T03:58:38;19.10;70.60
8910;DHT22;4490;49.072;8.804;2023-07-08T04:01:04;19.20;70.00
8910;DHT22;4490;49.072;8.804;2023-07-08T04:03:30;19.20;69.50
8910;DHT22;4490;49.072;8.804;2023-07-08T04:05:55;19.20;69.00
8910;DHT22;4490;49.072;8.804;2023-07-08T04:08:21;19.30;68.80
8910;DHT22;4490;49.072;8.804;2023-07-08T04:10:47;19.40;68.40
8910;DHT22;4490;49.072;8.804;2023-07-08T04:13:12;19.40;68.10
8910;DHT22;4490;49.072;8.804;2023-07-08T04:15:38;19.50;67.80
8910;DHT22;4490;49.072;8.804;2023-07-08T04:18:04;19.60;67.60
8910;DHT22;4490;49.072;8.804;2023-07-08T04:20:29;19.70;67.70
8910;DHT22;4490;49.072;8.804;2023-07-08T04:22:55;19.80;67.60
8910;DHT22;4490;49.072;8.804;2023-07-08T04:25:21;19.80;67.30
8910;DHT22;4490;49.072;8.804;2023-07-08T04:27:47;19.90;67.30
8910;DHT22;4490;49.072;8.804;2023-07-08T04:30:31;19.90;67.70
8910;DHT22;4490;49.072;8.804;2023-07-08T04:32:57;20.00;68.60
8910;DHT22;4490;49.072;8.804;2023-07-08T04:35:22;20.00;67.80
8910;DHT22;4490;49.072;8.804;2023-07-08T04:37:48;20.00;66.90
8910;DHT22;4490;49.072;8.804;2023-07-08T04:40:19;20.10;67.00
8910;DHT22;4490;49.072;8.804;2023-07-08T04:42:45;20.20;67.30
8910;DHT22;4490;49.072;8.804;2023-07-08T04:45:14;20.20;67.00
8910;DHT22;4490;49.072;8.804;2023-07-08T04:47:39;20.30;66.90
8910;DHT22;4490;49.072;8.804;2023-07-08T04:50:05;20.30;66.50
8910;DHT22;4490;49.072;8.804;2023-07-08T04:52:32;20.40;66.50
8910;DHT22;4490;49.072;8.804;2023-07-08T04:54:58;20.40;66.50
8910;DHT22;4490;49.072;8.804;2023-07-08T04:57:24;20.40;66.30
8910;DHT22;4490;49.072;8.804;2023-07-08T04:59:50;20.50;66.50
8910;DHT22;4490;49.072;8.804;2023-07-08T05:02:16;20.50;66.50
8910;DHT22;4490;49.072;8.804;2023-07-08T05:04:41;20.60;66.90
8910;DHT22;4490;49.072;8.804;2023-07-08T05:07:07;20.60;66.70
8910;DHT22;4490;49.072;8.804;2023-07-08T05:09:32;20.70;66.70
8910;DHT22;4490;49.072;8.804;2023-07-08T05:11:58;20.70;66.70
8910;DHT22;4490;49.072;8.804;2023-07-08T05:14:25;20.80;66.60
8910;DHT22;4490;49.072;8.804;2023-07-08T05:16:53;20.80;66.60
8910;DHT22;4490;49.072;8.804;2023-07-08T05:19:19;20.80;66.40
8910;DHT22;4490;49.072;8.804;2023-07-08T05:21:47;20.90;66.30
8910;DHT22;4490;49.072;8.804;2023-07-08T05:24:13;21.00;67.50
8910;DHT22;4490;49.072;8.804;2023-07-08T05:26:39;21.10;66.80
8910;DHT22;4490;49.072;8.804;2023-07-08T05:29:04;21.10;66.80
8910;DHT22;4490;49.072;8.804;2023-07-08T05:31:30;21.20;66.60
8910;DHT22;4490;49.072;8.804;2023-07-08T05:33:56;21.30;67.00
8910;DHT22;4490;49.072;8.804;2023-07-08T05:36:21;21.30;67.00
8910;DHT22;4490;49.072;8.804;2023-07-08T05:38:48;21.40;66.80
8910;DHT22;4490;49.072;8.804;2023-07-08T05:41:14;21.60;66.90
8910;DHT22;4490;49.072;8.804;2023-07-08T05:43:39;21.70;66.70
8910;DHT22;4490;49.072;8.804;2023-07-08T05:46:05;21.80;67.00
8910;DHT22;4490;49.072;8.804;2023-07-08T05:48:31;21.80;66.90
8910;DHT22;4490;49.072;8.804;2023-07-08T05:50:57;21.90;67.30
8910;DHT22;4490;49.072;8.804;2023-07-08T05:53:22;22.00;67.60
8910;DHT22;4490;49.072;8.804;2023-07-08T05:55:48;22.10;67.80
8910;DHT22;4490;49.072;8.804;2023-07-08T05:58:14;22.10;67.40
8910;DHT22;4490;49.072;8.804;2023-07-08T06:00:41;22.10;67.60
8910;DHT22;4490;49.072;8.804;2023-07-08T06:03:08;22.10;68.00
8910;DHT22;4490;49.072;8.804;2023-07-08T06:05:35;22.10;68.90
8910;DHT22;4490;49.072;8.804;2023-07-08T06:08:01;22.00;69.20
8910;DHT22;4490;49.072;8.804;2023-07-08T06:10:27;22.00;69.70
8910;DHT22;4490;49.072;8.804;2023-07-08T06:12:53;21.90;70.00
8910;DHT22;4490;49.072;8.804;2023-07-08T06:15:18;22.10;70.60
8910;DHT22;4490;49.072;8.804;2023-07-08T06:17:44;22.20;70.60
8910;DHT22;4490;49.072;8.804;2023-07-08T06:20:10;22.40;70.10
8910;DHT22;4490;49.072;8.804;2023-07-08T06:22:35;22.70;69.60
8910;DHT22;4490;49.072;8.804;2023-07-08T06:25:01;22.90;69.20
8910;DHT22;4490;49.072;8.804;2023-07-08T06:27:27;23.10;68.80
8910;DHT22;4490;49.072;8.804;2023-07-08T06:29:53;23.30;68.30
8910;DHT22;4490;49.072;8.804;2023-07-08T06:32:19;23.50;67.90
8910;DHT22;4490;49.072;8.804;2023-07-08T06:34:44;23.60;67.90
8910;DHT22;4490;49.072;8.804;2023-07-08T06:37:10;23.70;67.60
8910;DHT22;4490;49.072;8.804;2023-07-08T06:39:36;23.90;67.70
8910;DHT22;4490;49.072;8.804;2023-07-08T06:42:01;24.00;67.30
8910;DHT22;4490;49.072;8.804;2023-07-08T06:44:27;24.20;67.20
8910;DHT22;4490;49.072;8.804;2023-07-08T06:46:52;24.30;67.30
8910;DHT22;4490;49.072;8.804;2023-07-08T06:49:18;24.50;66.60
8910;DHT22;4490;49.072;8.804;2023-07-08T06:51:44;24.60;66.50
8910;DHT22;4490;49.072;8.804;2023-07-08T06:54:11;24.70;66.50
8910;DHT22;4490;49.072;8.804;2023-07-08T06:56:41;24.90;66.70
8910;DHT22;4490;49.072;8.804;2023-07-08T06:59:07;25.10;66.80
8910;DHT22;4490;49.072;8.804;2023-07-08T07:01:34;25.20;65.80
8910;DHT22;4490;49.072;8.804;2023-07-08T07:04:00;25.40;65.60
8910;DHT22;4490;49.072;8.804;2023-07-08T07:06:26;25.50;66.40
8910;DHT22;4490;49.072;8.804;2023-07-08T07:08:52;25.70;66.40
8910;DHT22;4490;49.072;8.804;2023-07-08T07:11:18;25.90;66.20
8910;DHT22;4490;49.072;8.804;2023-07-08T07:13:45;26.00;66.00
8910;DHT22;4490;49.072;8.804;2023-07-08T07:16:10;26.20;65.90
8910;DHT22;4490;49.072;8.804;2023-07-08T07:18:36;26.40;65.70
8910;DHT22;4490;49.072;8.804;2023-07-08T07:21:01;26.60;65.40
8910;DHT22;4490;49.072;8.804;2023-07-08T07:23:27;26.80;65.10
8910;DHT22;4490;49.072;8.804;2023-07-08T07:25:53;26.90;64.40
8910;DHT22;4490;49.072;8.804;2023-07-08T07:28:18;27.00;64.30
8910;DHT22;4490;49.072;8.804;2023-07-08T07:30:45;27.10;64.00
8910;DHT22;4490;49.072;8.804;2023-07-08T07:33:12;27.20;63.60
8910;DHT22;4490;49.072;8.804;2023-07-08T07:35:45;27.20;63.70
8910;DHT22;4490;49.072;8.804;2023-07-08T07:38:11;27.40;64.00
8910;DHT22;4490;49.072;8.804;2023-07-08T07:40:36;27.60;64.30
8910;DHT22;4490;49.072;8.804;2023-07-08T07:43:04;27.70;64.00
8910;DHT22;4490;49.072;8.804;2023-07-08T07:45:30;27.90;63.40
8910;DHT22;4490;49.072;8.804;2023-07-08T07:47:55;27.90;63.20
8910;DHT22;4490;49.072;8.804;2023-07-08T07:50:21;27.90;63.40
8910;DHT22;4490;49.072;8.804;2023-07-08T07:52:46;27.90;63.20
8910;DHT22;4490;49.072;8.804;2023-07-08T07:55:12;27.90;63.00
8910;DHT22;4490;49.072;8.804;2023-07-08T07:57:38;27.80;63.00
8910;DHT22;4490;49.072;8.804;2023-07-08T08:00:04;27.70;63.40
8910;DHT22;4490;49.072;8.804;2023-07-08T08:02:29;27.70;63.70
8910;DHT22;4490;49.072;8.804;2023-07-08T08:04:55;27.70;65.00
8910;DHT22;4490;49.072;8.804;2023-07-08T08:07:21;27.70;63.80
8910;DHT22;4490;49.072;8.804;2023-07-08T08:09:46;27.70;63.50
8910;DHT22;4490;49.072;8.804;2023-07-08T08:12:12;27.70;63.50
8910;DHT22;4490;49.072;8.804;2023-07-08T08:14:38;27.80;64.00
8910;DHT22;4490;49.072;8.804;2023-07-08T08:17:05;27.80;64.20
8910;DHT22;4490;49.072;8.804;2023-07-08T08:19:30;27.90;63.70
8910;DHT22;4490;49.072;8.804;2023-07-08T08:21:57;27.90;64.20
8910;DHT22;4490;49.072;8.804;2023-07-08T08:24:23;28.00;64.10
8910;DHT22;4490;49.072;8.804;2023-07-08T08:26:48;28.10;64.50
8910;DHT22;4490;49.072;8.804;2023-07-08T08:29:14;28.20;63.70
8910;DHT22;4490;49.072;8.804;2023-07-08T08:31:40;28.20;63.60
8910;DHT22;4490;49.072;8.804;2023-07-08T08:34:05;28.30;64.00
8910;DHT22;4490;49.072;8.804;2023-07-08T08:36:31;28.40;64.80
8910;DHT22;4490;49.072;8.804;2023-07-08T08:38:56;28.50;64.20
8910;DHT22;4490;49.072;8.804;2023-07-08T08:41:30;28.60;63.50
8910;DHT22;4490;49.072;8.804;2023-07-08T08:43:57;28.70;63.90
8910;DHT22;4490;49.072;8.804;2023-07-08T08:46:39;28.90;63.60
8910;DHT22;4490;49.072;8.804;2023-07-08T08:49:23;29.10;62.00
8910;DHT22;4490;49.072;8.804;2023-07-08T08:51:51;29.20;61.80
8910;DHT22;4490;49.072;8.804;2023-07-08T08:54:16;29.20;61.90
8910;DHT22;4490;49.072;8.804;2023-07-08T08:59:55;29.30;61.40
8910;DHT22;4490;49.072;8.804;2023-07-08T09:02:34;29.40;62.30
8910;DHT22;4490;49.072;8.804;2023-07-08T09:05:04;29.50;61.40
8910;DHT22;4490;49.072;8.804;2023-07-08T09:07:40;29.70;60.60
8910;DHT22;4490;49.072;8.804;2023-07-08T09:10:19;29.80;61.80
8910;DHT22;4490;49.072;8.804;2023-07-08T09:12:50;30.00;61.20
8910;DHT22;4490;49.072;8.804;2023-07-08T09:15:17;30.10;60.70
8910;DHT22;4490;49.072;8.804;2023-07-08T09:17:42;30.20;60.90
8910;DHT22;4490;49.072;8.804;2023-07-08T09:20:23;30.30;60.70
8910;DHT22;4490;49.072;8.804;2023-07-08T09:25:37;30.50;59.30
8910;DHT22;4490;49.072;8.804;2023-07-08T09:28:07;30.60;60.30
8910;DHT22;4490;49.072;8.804;2023-07-08T09:30:33;30.80;59.80
8910;DHT22;4490;49.072;8.804;2023-07-08T09:33:03;30.90;59.20
8910;DHT22;4490;49.072;8.804;2023-07-08T09:35:42;31.10;58.90
8910;DHT22;4490;49.072;8.804;2023-07-08T09:38:15;31.30;57.20
8910;DHT22;4490;49.072;8.804;2023-07-08T09:40:47;31.50;58.10
8910;DHT22;4490;49.072;8.804;2023-07-08T09:43:27;31.60;58.30
8910;DHT22;4490;49.072;8.804;2023-07-08T09:45:58;31.70;58.00
8910;DHT22;4490;49.072;8.804;2023-07-08T09:48:26;31.90;56.80
8910;DHT22;4490;49.072;8.804;2023-07-08T09:50:54;32.00;56.00
8910;DHT22;4490;49.072;8.804;2023-07-08T09:53:21;32.10;55.00
8910;DHT22;4490;49.072;8.804;2023-07-08T09:55:47;32.30;54.10
8910;DHT22;4490;49.072;8.804;2023-07-08T09:58:19;32.40;54.80
8910;DHT22;4490;49.072;8.804;2023-07-08T10:01:00;32.50;53.50
8910;DHT22;4490;49.072;8.804;2023-07-08T10:03:30;32.70;52.30
8910;DHT22;4490;49.072;8.804;2023-07-08T10:05:58;32.80;52.10
8910;DHT22;4490;49.072;8.804;2023-07-08T10:08:31;33.00;52.00
8910;DHT22;4490;49.072;8.804;2023-07-08T10:11:22;33.00;51.30
8910;DHT22;4490;49.072;8.804;2023-07-08T10:13:51;33.20;51.70
8910;DHT22;4490;49.072;8.804;2023-07-08T10:16:23;33.30;52.00
8910;DHT22;4490;49.072;8.804;2023-07-08T10:18:49;33.40;51.50
8910;DHT22;4490;49.072;8.804;2023-07-08T10:21:31;33.50;50.80
8910;DHT22;4490;49.072;8.804;2023-07-08T10:51:41;34.70;46.10
8910;DHT22;4490;49.072;8.804;2023-07-08T10:59:34;34.90;46.90
8910;DHT22;4490;49.072;8.804;2023-07-08T11:02:28;35.00;47.00
8910;DHT22;4490;49.072;8.804;2023-07-08T11:07:47;35.30;47.20
8910;DHT22;4490;49.072;8.804;2023-07-08T11:10:22;35.40;47.10
8910;DHT22;4490;49.072;8.804;2023-07-08T11:12:56;35.50;47.10
8910;DHT22;4490;49.072;8.804;2023-07-08T11:15:47;35.50;46.20
8910;DHT22;4490;49.072;8.804;2023-07-08T11:18:15;35.70;46.40
8910;DHT22;4490;49.072;8.804;2023-07-08T11:23:36;35.80;46.60
8910;DHT22;4490;49.072;8.804;2023-07-08T11:26:27;35.90;45.00
8910;DHT22;4490;49.072;8.804;2023-07-08T11:28:57;35.90;45.60
8910;DHT22;4490;49.072;8.804;2023-07-08T11:31:24;36.00;45.70
8910;DHT22;4490;49.072;8.804;2023-07-08T11:33:52;36.10;45.70
8910;DHT22;4490;49.072;8.804;2023-07-08T11:36:20;36.30;45.60
8910;DHT22;4490;49.072;8.804;2023-07-08T11:38:49;36.30;44.90
8910;DHT22;4490;49.072;8.804;2023-07-08T11:41:18;36.40;45.30
8910;DHT22;4490;49.072;8.804;2023-07-08T11:43:57;36.50;45.00
8910;DHT22;4490;49.072;8.804;2023-07-08T11:46:33;36.60;44.50
8910;DHT22;4490;49.072;8.804;2023-07-08T11:49:06;36.70;44.90
8910;DHT22;4490;49.072;8.804;2023-07-08T11:51:38;36.80;44.90
8910;DHT22;4490;49.072;8.804;2023-07-08T11:54:31;36.80;44.60
8910;DHT22;4490;49.072;8.804;2023-07-08T11:57:04;37.00;44.00
8910;DHT22;4490;49.072;8.804;2023-07-08T11:59:33;37.00;43.70
8910;DHT22;4490;49.072;8.804;2023-07-08T12:02:03;37.00;43.70
8910;DHT22;4490;49.072;8.804;2023-07-08T12:04:34;37.10;43.80
8910;DHT22;4490;49.072;8.804;2023-07-08T12:07:09;37.10;44.60
8910;DHT22;4490;49.072;8.804;2023-07-08T12:09:46;37.20;44.20
8910;DHT22;4490;49.072;8.804;2023-07-08T12:12:35;37.30;43.60
8910;DHT22;4490;49.072;8.804;2023-07-08T12:17:41;37.50;43.00
8910;DHT22;4490;49.072;8.804;2023-07-08T12:20:26;37.50;43.60
8910;DHT22;4490;49.072;8.804;2023-07-08T12:22:53;37.50;43.60
8910;DHT22;4490;49.072;8.804;2023-07-08T12:25:27;37.60;43.60
8910;DHT22;4490;49.072;8.804;2023-07-08T12:27:53;37.70;43.30
8910;DHT22;4490;49.072;8.804;2023-07-08T12:30:19;37.70;44.10
8910;DHT22;4490;49.072;8.804;2023-07-08T12:32:45;37.80;44.40
8910;DHT22;4490;49.072;8.804;2023-07-08T12:35:28;37.90;43.20
8910;DHT22;4490;49.072;8.804;2023-07-08T12:37:58;38.00;42.70
8910;DHT22;4490;49.072;8.804;2023-07-08T12:40:26;38.10;42.40
8910;DHT22;4490;49.072;8.804;2023-07-08T12:42:53;38.20;42.50
8910;DHT22;4490;49.072;8.804;2023-07-08T12:45:20;38.30;42.50
8910;DHT22;4490;49.072;8.804;2023-07-08T12:47:46;38.40;42.30
8910;DHT22;4490;49.072;8.804;2023-07-08T12:50:12;38.50;41.70
8910;DHT22;4490;49.072;8.804;2023-07-08T12:52:39;38.50;41.70
8910;DHT22;4490;49.072;8.804;2023-07-08T12:55:08;38.60;42.50
8910;DHT22;4490;49.072;8.804;2023-07-08T12:57:34;38.60;41.80
8910;DHT22;4490;49.072;8.804;2023-07-08T13:00:01;38.60;42.10
8910;DHT22;4490;49.072;8.804;2023-07-08T13:02:28;38.60;42.20
8910;DHT22;4490;49.072;8.804;2023-07-08T13:04:59;38.60;42.20
8910;DHT22;4490;49.072;8.804;2023-07-08T13:07:37;38.60;42.90
8910;DHT22;4490;49.072;8.804;2023-07-08T13:10:05;38.70;42.50
8910;DHT22;4490;49.072;8.804;2023-07-08T13:12:32;38.60;42.50
8910;DHT22;4490;49.072;8.804;2023-07-08T13:15:02;38.60;42.30
8910;DHT22;4490;49.072;8.804;2023-07-08T13:17:28;38.60;42.20
8910;DHT22;4490;49.072;8.804;2023-07-08T13:19:54;38.60;41.60
8910;DHT22;4490;49.072;8.804;2023-07-08T13:22:22;38.40;42.20
8910;DHT22;4490;49.072;8.804;2023-07-08T13:24:48;38.20;42.20
8910;DHT22;4490;49.072;8.804;2023-07-08T13:27:22;38.10;42.00
8910;DHT22;4490;49.072;8.804;2023-07-08T13:29:54;38.00;41.40
8910;DHT22;4490;49.072;8.804;2023-07-08T13:32:20;37.90;41.20
8910;DHT22;4490;49.072;8.804;2023-07-08T13:34:49;37.80;41.80
8910;DHT22;4490;49.072;8.804;2023-07-08T13:37:16;37.80;42.60
8910;DHT22;4490;49.072;8.804;2023-07-08T13:39:45;37.70;43.40
8910;DHT22;4490;49.072;8.804;2023-07-08T13:42:11;37.80;43.50
8910;DHT22;4490;49.072;8.804;2023-07-08T13:44:44;37.70;43.10
8910;DHT22;4490;49.072;8.804;2023-07-08T13:47:23;37.60;43.00
8910;DHT22;4490;49.072;8.804;2023-07-08T13:49:56;37.40;43.40
8910;DHT22;4490;49.072;8.804;2023-07-08T13:52:23;37.30;43.00
8910;DHT22;4490;49.072;8.804;2023-07-08T13:54:57;37.30;42.90
8910;DHT22;4490;49.072;8.804;2023-07-08T13:57:31;37.20;42.60
8910;DHT22;4490;49.072;8.804;2023-07-08T13:59:57;37.20;43.50
8910;DHT22;4490;49.072;8.804;2023-07-08T14:02:27;37.20;43.20
8910;DHT22;4490;49.072;8.804;2023-07-08T14:04:54;37.20;42.50
8910;DHT22;4490;49.072;8.804;2023-07-08T14:07:26;37.20;42.20
8910;DHT22;4490;49.072;8.804;2023-07-08T14:09:52;37.20;42.50
8910;DHT22;4490;49.072;8.804;2023-07-08T14:12:18;37.20;42.80
8910;DHT22;4490;49.072;8.804;2023-07-08T14:14:44;37.20;43.00
8910;DHT22;4490;49.072;8.804;2023-07-08T14:17:13;37.20;42.80
8910;DHT22;4490;49.072;8.804;2023-07-08T14:19:40;37.20;42.40
8910;DHT22;4490;49.072;8.804;2023-07-08T14:24:41;37.00;43.00
8910;DHT22;4490;49.072;8.804;2023-07-08T14:27:08;37.00;43.60
8910;DHT22;4490;49.072;8.804;2023-07-08T14:29:39;37.00;43.50
8910;DHT22;4490;49.072;8.804;2023-07-08T14:32:22;37.00;43.40
8910;DHT22;4490;49.072;8.804;2023-07-08T14:34:52;37.10;42.80
8910;DHT22;4490;49.072;8.804;2023-07-08T14:37:19;37.10;42.30
8910;DHT22;4490;49.072;8.804;2023-07-08T14:39:44;37.00;42.30
8910;DHT22;4490;49.072;8.804;2023-07-08T14:42:15;36.90;42.70
8910;DHT22;4490;49.072;8.804;2023-07-08T14:44:45;36.80;42.50
8910;DHT22;4490;49.072;8.804;2023-07-08T14:47:13;36.70;43.10
8910;DHT22;4490;49.072;8.804;2023-07-08T14:49:40;36.70;43.70
8910;DHT22;4490;49.072;8.804;2023-07-08T14:52:07;36.60;43.40
8910;DHT22;4490;49.072;8.804;2023-07-08T14:54:33;36.50;43.20
8910;DHT22;4490;49.072;8.804;2023-07-08T14:57:01;36.40;43.20
8910;DHT22;4490;49.072;8.804;2023-07-08T14:59:29;36.40;43.60
8910;DHT22;4490;49.072;8.804;2023-07-08T15:01:58;36.30;43.30
8910;DHT22;4490;49.072;8.804;2023-07-08T15:04:24;36.30;43.40
8910;DHT22;4490;49.072;8.804;2023-07-08T15:06:51;36.20;43.20
8910;DHT22;4490;49.072;8.804;2023-07-08T15:09:17;36.20;43.20
8910;DHT22;4490;49.072;8.804;2023-07-08T15:11:44;36.10;43.40
8910;DHT22;4490;49.072;8.804;2023-07-08T15:14:20;36.10;43.40
8910;DHT22;4490;49.072;8.804;2023-07-08T15:16:49;36.00;43.40
8910;DHT22;4490;49.072;8.804;2023-07-08T15:19:16;35.90;43.60
8910;DHT22;4490;49.072;8.804;2023-07-08T15:21:42;35.90;44.40
8910;DHT22;4490;49.072;8.804;2023-07-08T15:24:10;35.90;44.60
8910;DHT22;4490;49.072;8.804;2023-07-08T15:26:38;35.80;43.90
8910;DHT22;4490;49.072;8.804;2023-07-08T15:29:14;35.70;43.90
8910;DHT22;4490;49.072;8.804;2023-07-08T15:31:40;35.70;43.80
8910;DHT22;4490;49.072;8.804;2023-07-08T15:34:14;35.50;43.90
8910;DHT22;4490;49.072;8.804;2023-07-08T15:36:41;35.50;44.70
8910;DHT22;4490;49.072;8.804;2023-07-08T15:39:07;35.40;43.80
8910;DHT22;4490;49.072;8.804;2023-07-08T15:41:33;35.30;43.70
8910;DHT22;4490;49.072;8.804;2023-07-08T15:43:59;35.20;44.20
8910;DHT22;4490;49.072;8.804;2023-07-08T15:46:33;35.10;44.40
8910;DHT22;4490;49.072;8.804;2023-07-08T15:49:00;35.10;44.50
8910;DHT22;4490;49.072;8.804;2023-07-08T15:51:26;35.00;44.90
8910;DHT22;4490;49.072;8.804;2023-07-08T15:53:51;35.00;45.00
8910;DHT22;4490;49.072;8.804;2023-07-08T15:56:20;35.00;44.80
8910;DHT22;4490;49.072;8.804;2023-07-08T15:58:47;35.00;44.50
8910;DHT22;4490;49.072;8.804;2023-07-08T16:01:21;34.90;45.60
8910;DHT22;4490;49.072;8.804;2023-07-08T16:03:47;34.90;45.10
8910;DHT22;4490;49.072;8.804;2023-07-08T16:06:14;34.80;44.70
8910;DHT22;4490;49.072;8.804;2023-07-08T16:08:40;34.80;44.80
8910;DHT22;4490;49.072;8.804;2023-07-08T16:11:12;34.80;44.50
8910;DHT22;4490;49.072;8.804;2023-07-08T16:13:43;34.70;44.10
8910;DHT22;4490;49.072;8.804;2023-07-08T16:16:11;34.60;44.50
8910;DHT22;4490;49.072;8.804;2023-07-08T16:18:37;34.60;44.50
8910;DHT22;4490;49.072;8.804;2023-07-08T16:21:03;34.50;45.10
8910;DHT22;4490;49.072;8.804;2023-07-08T16:23:29;34.50;45.50
8910;DHT22;4490;49.072;8.804;2023-07-08T16:25:54;34.40;45.50
8910;DHT22;4490;49.072;8.804;2023-07-08T16:28:39;34.40;45.70
8910;DHT22;4490;49.072;8.804;2023-07-08T16:31:13;34.40;45.60
8910;DHT22;4490;49.072;8.804;2023-07-08T16:33:40;34.20;45.30
8910;DHT22;4490;49.072;8.804;2023-07-08T16:36:16;34.10;45.50
8910;DHT22;4490;49.072;8.804;2023-07-08T16:38:42;34.10;45.50
8910;DHT22;4490;49.072;8.804;2023-07-08T16:41:16;34.10;45.50
8910;DHT22;4490;49.072;8.804;2023-07-08T16:43:42;34.00;45.50
8910;DHT22;4490;49.072;8.804;2023-07-08T16:46:09;34.00;46.10
8910;DHT22;4490;49.072;8.804;2023-07-08T16:48:35;33.90;46.30
8910;DHT22;4490;49.072;8.804;2023-07-08T16:51:01;33.90;46.50
8910;DHT22;4490;49.072;8.804;2023-07-08T16:53:28;33.80;46.50
8910;DHT22;4490;49.072;8.804;2023-07-08T16:55:54;33.70;46.50
8910;DHT22;4490;49.072;8.804;2023-07-08T16:58:20;33.70;46.50
8910;DHT22;4490;49.072;8.804;2023-07-08T17:00:46;33.70;46.70
8910;DHT22;4490;49.072;8.804;2023-07-08T17:03:14;33.60;47.00
8910;DHT22;4490;49.072;8.804;2023-07-08T17:05:41;33.50;47.30